createdAt,value
2023-05-19T00:01:45.478Z,5.20
2023-05-19T00:04:22.490Z,5.95
2023-05-19T00:06:51.097Z,4.78
2023-05-19T00:09:18.193Z,5.35
2023-05-19T00:11:45.693Z,4.65
2023-05-19T00:14:13.084Z,5.03
2023-05-19T00:16:40.204Z,5.43
2023-05-19T00:19:10.187Z,4.75
2023-05-19T00:21:46.235Z,4.97
2023-05-19T00:24:13.594Z,5.68
2023-05-19T00:26:40.735Z,4.50
2023-05-19T00:29:07.942Z,4.53
2023-05-19T00:31:35.190Z,4.88
2023-05-19T00:34:02.389Z,4.72
2023-05-19T00:36:29.600Z,5.05
2023-05-19T00:38:56.557Z,4.85
2023-05-19T00:41:23.758Z,4.93
2023-05-19T00:43:52.384Z,5.18
2023-05-19T00:46:20.397Z,5.25
2023-05-19T00:48:58.085Z,4.85
2023-05-19T00:51:29.647Z,4.85
2023-05-19T00:54:00.580Z,5.40
2023-05-19T00:56:28.125Z,5.43
2023-05-19T00:58:55.936Z,4.85
2023-05-19T01:01:22.839Z,5.10
2023-05-19T01:03:50.436Z,5.18
2023-05-19T01:06:20.929Z,5.30
2023-05-19T01:08:51.618Z,5.70
2023-05-19T01:11:28.396Z,5.75
2023-05-19T01:13:56.075Z,5.15
2023-05-19T01:16:32.313Z,6.00
2023-05-19T01:19:14.526Z,5.43
2023-05-19T01:22:01.312Z,5.07
2023-05-19T01:24:45.450Z,5.80
2023-05-19T01:27:16.428Z,5.25
2023-05-19T01:29:58.461Z,5.50
2023-05-19T01:32:27.282Z,5.70
2023-05-19T01:34:56.738Z,5.95
2023-05-19T01:37:24.203Z,5.68
2023-05-19T01:39:52.009Z,5.65
2023-05-19T01:42:19.451Z,6.25
2023-05-19T01:44:47.153Z,5.60
2023-05-19T01:47:14.428Z,5.50
2023-05-19T01:49:42.712Z,5.13
2023-05-19T01:52:10.766Z,5.63
2023-05-19T01:54:38.052Z,5.50
2023-05-19T01:57:33.913Z,6.00
2023-05-19T02:00:01.562Z,5.20
2023-05-19T02:02:31.963Z,6.53
2023-05-19T02:05:03.201Z,5.55
2023-05-19T02:07:35.654Z,5.45
2023-05-19T02:10:04.076Z,5.68
2023-05-19T02:12:34.414Z,6.53
2023-05-19T02:15:19.145Z,6.28
2023-05-19T02:17:48.444Z,6.55
2023-05-19T02:20:16.647Z,5.70
2023-05-19T02:22:47.391Z,6.50
2023-05-19T02:25:15.388Z,6.68
2023-05-19T02:27:42.787Z,6.88
2023-05-19T02:30:12.648Z,6.80
2023-05-19T02:32:40.004Z,6.90
2023-05-19T02:35:07.278Z,6.50
2023-05-19T02:37:35.459Z,6.25
2023-05-19T02:40:02.565Z,6.65
2023-05-19T02:42:30.516Z,6.75
2023-05-19T02:45:00.550Z,6.70
2023-05-19T02:47:28.299Z,6.43
2023-05-19T02:49:55.690Z,7.10
2023-05-19T02:52:22.961Z,6.72
2023-05-19T02:54:50.126Z,6.25
2023-05-19T02:57:17.332Z,6.75
2023-05-19T02:59:44.269Z,5.70
2023-05-19T03:02:11.595Z,6.55
2023-05-19T03:04:43.057Z,6.97
2023-05-19T03:07:25.468Z,6.38
2023-05-19T03:09:55.315Z,6.53
2023-05-19T03:12:22.270Z,6.55
2023-05-19T03:14:49.695Z,6.28
2023-05-19T03:17:16.658Z,7.97
2023-05-19T03:19:43.977Z,6.95
2023-05-19T03:22:11.018Z,6.60
2023-05-19T03:24:37.975Z,6.35
2023-05-19T03:27:06.020Z,6.40
2023-05-19T03:29:33.461Z,6.60
2023-05-19T03:32:03.256Z,6.25
2023-05-19T03:34:30.097Z,9.73
2023-05-19T03:36:57.785Z,9.15
2023-05-19T03:39:24.911Z,7.30
2023-05-19T03:41:52.177Z,6.93
2023-05-19T03:44:22.217Z,12.20
2023-05-19T03:46:50.002Z,6.63
2023-05-19T03:49:43.351Z,6.18
2023-05-19T03:52:28.677Z,6.68
2023-05-19T03:55:04.447Z,6.18
2023-05-19T03:57:32.196Z,5.85
2023-05-19T03:59:59.780Z,5.97
2023-05-19T04:02:26.929Z,6.20
2023-05-19T04:04:54.106Z,6.20
2023-05-19T04:07:21.948Z,6.38
2023-05-19T04:10:23.002Z,6.43
2023-05-19T04:12:50.105Z,6.90
2023-05-19T04:15:17.069Z,7.35
2023-05-19T04:17:44.421Z,6.90
2023-05-19T04:20:12.489Z,7.32
2023-05-19T04:22:39.376Z,7.63
2023-05-19T04:25:07.650Z,7.88
2023-05-19T04:27:39.012Z,6.53
2023-05-19T04:30:06.693Z,6.80
2023-05-19T04:32:37.170Z,6.95
2023-05-19T04:35:06.025Z,7.15
2023-05-19T04:37:32.885Z,6.65
2023-05-19T04:40:23.751Z,7.47
2023-05-19T04:42:59.344Z,7.18
2023-05-19T04:45:26.672Z,6.78
2023-05-19T04:47:58.292Z,7.50
2023-05-19T04:50:33.249Z,7.05
2023-05-19T04:53:02.933Z,7.10
2023-05-19T04:55:30.067Z,7.28
2023-05-19T04:57:58.185Z,7.10
2023-05-19T05:00:42.668Z,6.95
2023-05-19T05:03:09.823Z,7.50
2023-05-19T05:05:40.031Z,7.97
2023-05-19T05:08:07.273Z,7.80
2023-05-19T05:10:41.586Z,7.60
2023-05-19T05:13:10.577Z,6.95
2023-05-19T05:15:39.056Z,7.68
2023-05-19T05:18:06.241Z,7.07
2023-05-19T05:20:33.979Z,7.47
2023-05-19T05:23:02.203Z,35.95
2023-05-19T05:25:34.149Z,7.88
2023-05-19T05:28:05.226Z,7.22
2023-05-19T05:30:37.025Z,7.60
2023-05-19T05:33:08.143Z,7.78
2023-05-19T05:35:38.587Z,7.13
2023-05-19T05:38:07.103Z,8.00
2023-05-19T05:40:38.539Z,8.02
2023-05-19T05:43:06.159Z,7.70
2023-05-19T05:45:38.111Z,8.32
2023-05-19T05:48:06.183Z,7.50
2023-05-19T05:50:36.959Z,7.63
2023-05-19T05:53:07.625Z,8.13
2023-05-19T05:55:37.597Z,7.75
2023-05-19T05:58:11.002Z,8.23
2023-05-19T06:00:38.303Z,7.90
2023-05-19T06:03:05.901Z,8.23
2023-05-19T06:05:33.593Z,8.07
2023-05-19T06:08:01.595Z,8.98
2023-05-19T06:10:28.611Z,9.38
2023-05-19T06:12:55.895Z,8.38
2023-05-19T06:15:23.719Z,8.60
2023-05-19T06:17:57.380Z,7.65
2023-05-19T06:20:24.543Z,6.85
2023-05-19T06:22:51.674Z,6.32
2023-05-19T06:25:20.865Z,6.90
2023-05-19T06:27:51.646Z,7.03
2023-05-19T06:30:19.625Z,6.00
2023-05-19T06:32:56.601Z,6.00
2023-05-19T06:35:24.717Z,5.97
2023-05-19T06:37:53.206Z,7.05
2023-05-19T06:40:20.790Z,6.82
2023-05-19T06:42:47.901Z,6.75
2023-05-19T06:45:22.432Z,6.60
2023-05-19T06:48:00.364Z,6.47
2023-05-19T06:50:27.450Z,7.50
2023-05-19T06:52:54.866Z,7.20
2023-05-19T06:55:28.458Z,6.50
2023-05-19T06:57:56.100Z,6.72
2023-05-19T07:00:24.100Z,6.03
2023-05-19T07:02:56.344Z,5.93
2023-05-19T07:05:24.098Z,6.13
2023-05-19T07:07:55.274Z,6.43
2023-05-19T07:10:25.957Z,5.85
2023-05-19T07:12:53.521Z,6.00
2023-05-19T07:15:25.269Z,5.88
2023-05-19T07:17:53.418Z,6.00
2023-05-19T07:20:20.317Z,6.07
2023-05-19T07:22:47.794Z,6.40
2023-05-19T07:25:15.420Z,5.90
2023-05-19T07:27:42.361Z,5.60
2023-05-19T07:30:09.408Z,5.53
2023-05-19T07:32:37.414Z,6.03
2023-05-19T07:35:05.628Z,5.22
2023-05-19T07:37:32.538Z,6.32
2023-05-19T07:39:59.259Z,6.20
2023-05-19T07:42:26.048Z,5.85
2023-05-19T07:44:54.654Z,6.35
2023-05-19T07:47:21.479Z,6.93
2023-05-19T07:49:50.372Z,6.25
2023-05-19T07:52:19.040Z,6.88
2023-05-19T07:54:46.522Z,6.80
2023-05-19T07:57:14.526Z,7.00
2023-05-19T07:59:41.512Z,6.13
2023-05-19T08:02:08.462Z,6.20
2023-05-19T08:04:35.588Z,7.13
2023-05-19T08:07:02.404Z,6.47
2023-05-19T08:09:29.283Z,7.22
2023-05-19T08:11:56.149Z,10.95
2023-05-19T08:14:22.928Z,8.30
2023-05-19T08:16:50.032Z,7.95
2023-05-19T08:19:16.870Z,7.05
2023-05-19T08:21:44.714Z,6.50
2023-05-19T08:24:11.764Z,7.45
2023-05-19T08:26:38.820Z,6.85
2023-05-19T08:29:05.784Z,7.57
2023-05-19T08:31:32.742Z,6.47
2023-05-19T08:33:59.850Z,6.35
2023-05-19T08:36:26.688Z,7.15
2023-05-19T08:38:54.948Z,6.72
2023-05-19T08:41:23.361Z,6.75
2023-05-19T08:43:51.058Z,7.28
2023-05-19T08:46:19.746Z,7.00
2023-05-19T08:48:48.315Z,7.15
2023-05-19T08:51:24.511Z,6.15
2023-05-19T08:53:53.672Z,7.30
2023-05-19T08:56:24.909Z,7.07
2023-05-19T08:58:52.737Z,7.40
2023-05-19T09:01:20.562Z,7.15
2023-05-19T09:03:49.904Z,11.65
2023-05-19T09:06:17.242Z,8.25
2023-05-19T09:08:44.346Z,9.35
2023-05-19T09:11:11.688Z,10.52
2023-05-19T09:13:39.119Z,11.77
2023-05-19T09:16:06.535Z,10.88
2023-05-19T09:18:33.753Z,10.82
2023-05-19T09:21:02.438Z,10.32
2023-05-19T09:23:34.168Z,10.30
2023-05-19T09:26:07.522Z,10.27
2023-05-19T09:28:35.662Z,9.98
2023-05-19T09:31:06.213Z,9.25
2023-05-19T09:33:33.859Z,9.73
2023-05-19T09:36:00.664Z,9.35
2023-05-19T09:38:27.959Z,9.38
2023-05-19T09:40:58.866Z,10.32
2023-05-19T09:43:29.793Z,10.32
2023-05-19T09:46:03.754Z,10.90
2023-05-19T09:48:30.588Z,11.10
2023-05-19T09:50:57.903Z,10.38
2023-05-19T09:53:25.685Z,11.32
2023-05-19T09:58:49.063Z,10.40
2023-05-19T10:01:16.971Z,9.65
2023-05-19T10:03:45.090Z,9.98
2023-05-19T10:06:12.613Z,10.02
2023-05-19T10:08:42.300Z,10.40
2023-05-19T10:11:10.208Z,9.40
2023-05-19T10:13:38.684Z,10.38
2023-05-19T10:16:05.996Z,11.20
2023-05-19T10:18:33.509Z,10.98
2023-05-19T10:21:00.697Z,9.95
2023-05-19T10:23:27.434Z,10.50
2023-05-19T10:25:56.336Z,10.68
2023-05-19T10:28:26.660Z,10.68
2023-05-19T10:30:55.014Z,9.68
2023-05-19T10:33:30.529Z,10.70
2023-05-19T10:36:02.583Z,9.20
2023-05-19T10:38:32.265Z,9.65
2023-05-19T10:41:02.882Z,10.15
2023-05-19T10:44:03.535Z,9.70
2023-05-19T15:56:52.712Z,6.20
2023-05-19T15:59:21.094Z,5.85
2023-05-19T16:01:48.789Z,6.22
2023-05-19T16:04:17.225Z,5.80
2023-05-19T16:06:44.664Z,6.70
2023-05-19T16:09:11.571Z,6.68
2023-05-19T16:11:38.431Z,5.82
2023-05-19T16:14:05.372Z,6.53
2023-05-19T16:16:32.148Z,5.97
2023-05-19T16:18:58.978Z,6.65
2023-05-19T16:21:25.918Z,6.18
2023-05-19T16:23:52.641Z,6.60
2023-05-19T16:26:19.321Z,6.35
2023-05-19T16:28:46.166Z,6.75
2023-05-19T16:31:12.860Z,6.53
2023-05-19T16:33:40.049Z,6.70
2023-05-19T16:36:07.873Z,7.38
2023-05-19T16:38:34.680Z,7.40
2023-05-19T16:41:01.763Z,5.70
2023-05-19T16:43:28.650Z,6.68
2023-05-19T16:45:55.508Z,7.03
2023-05-19T16:48:22.355Z,6.47
2023-05-19T16:50:50.484Z,6.80
2023-05-19T16:53:17.470Z,5.88
2023-05-19T16:55:44.342Z,5.72
2023-05-19T16:58:11.714Z,5.95
2023-05-19T17:00:38.872Z,4.40
2023-05-19T17:03:07.073Z,10.13
2023-05-19T17:05:35.728Z,14.75
2023-05-19T17:08:02.568Z,5.25
2023-05-19T17:10:29.411Z,2.90
2023-05-19T17:12:56.158Z,3.55
2023-05-19T17:15:23.171Z,9.93
2023-05-19T17:17:50.853Z,7.78
2023-05-19T17:20:18.219Z,4.25
2023-05-19T17:22:45.077Z,4.38
2023-05-19T17:25:12.469Z,4.53
2023-05-19T17:28:01.050Z,5.10
2023-05-19T17:31:11.329Z,7.88
2023-05-19T17:33:40.445Z,15.85
2023-05-19T17:36:08.518Z,8.75
2023-05-19T17:38:35.716Z,6.45
2023-05-19T17:41:02.937Z,7.30
2023-05-19T17:43:30.110Z,8.93
2023-05-19T17:45:58.796Z,15.00
2023-05-19T17:48:27.272Z,14.57
2023-05-19T17:50:56.919Z,14.55
2023-05-19T17:53:24.075Z,14.23
2023-05-19T17:55:52.305Z,8.30
2023-05-19T17:58:19.503Z,12.77
2023-05-19T18:00:46.691Z,13.00
2023-05-19T18:03:14.054Z,15.57
2023-05-19T18:05:43.372Z,8.45
2023-05-19T18:08:10.274Z,8.88
2023-05-19T18:10:38.668Z,5.55
2023-05-19T18:13:06.452Z,5.15
2023-05-19T18:15:56.395Z,7.50
2023-05-19T18:18:23.691Z,6.45
2023-05-19T18:20:54.914Z,6.45
2023-05-19T18:23:22.544Z,5.50
2023-05-19T18:26:39.938Z,16.20
2023-05-19T18:29:04.897Z,5.75
2023-05-19T18:31:54.140Z,3.17
2023-05-19T18:34:21.505Z,2.90
2023-05-19T18:37:06.139Z,3.35
2023-05-19T18:39:38.390Z,3.30
2023-05-19T18:42:08.408Z,3.10
2023-05-19T18:44:38.673Z,2.80
2023-05-19T18:47:20.989Z,2.88
2023-05-19T18:50:00.295Z,3.08
2023-05-19T18:52:37.744Z,3.15
2023-05-19T18:55:10.511Z,3.40
2023-05-19T19:00:09.942Z,2.92
2023-05-19T19:03:45.086Z,3.22
2023-05-19T19:06:01.719Z,3.33
2023-05-19T19:08:46.289Z,3.80
2023-05-19T19:11:16.314Z,2.60
2023-05-19T19:13:51.484Z,3.13
2023-05-19T19:16:41.760Z,3.30
2023-05-19T19:19:07.672Z,3.13
2023-05-19T19:21:38.242Z,3.30
2023-05-19T19:24:07.855Z,3.75
2023-05-19T19:26:38.643Z,6.45
2023-05-19T19:29:14.975Z,7.18
2023-05-19T19:31:42.325Z,7.55
2023-05-19T19:34:11.270Z,5.90
2023-05-19T19:36:50.971Z,5.78
2023-05-19T19:39:18.004Z,8.93
2023-05-19T19:41:45.354Z,10.73
2023-05-19T19:44:14.127Z,9.00
2023-05-19T19:46:40.979Z,6.20
2023-05-19T19:49:08.232Z,3.70
2023-05-19T19:51:35.180Z,4.00
2023-05-19T19:54:02.174Z,3.60
2023-05-19T19:56:29.514Z,3.25
2023-05-19T19:58:59.109Z,3.53
2023-05-19T20:01:27.677Z,3.53
2023-05-19T20:03:58.619Z,3.80
2023-05-19T20:06:37.861Z,4.63
2023-05-19T20:09:05.399Z,4.00
2023-05-19T20:11:35.343Z,4.00
2023-05-19T20:14:02.594Z,4.10
2023-05-19T20:16:33.677Z,4.30
2023-05-19T20:19:01.688Z,3.88
2023-05-19T20:21:31.563Z,4.45
2023-05-19T20:24:04.469Z,4.47
2023-05-19T20:26:33.705Z,5.22
2023-05-19T20:29:04.358Z,5.78
2023-05-19T20:31:56.616Z,5.40
2023-05-19T20:34:26.697Z,6.43
2023-05-19T20:36:54.758Z,7.07
2023-05-19T20:39:22.042Z,6.45
2023-05-19T20:41:49.068Z,6.75
2023-05-19T20:44:16.117Z,6.68
2023-05-19T20:46:43.279Z,6.55
2023-05-19T20:49:10.530Z,6.80
2023-05-19T20:51:37.725Z,7.30
2023-05-19T20:54:05.414Z,7.22
2023-05-19T20:56:32.760Z,9.18
2023-05-19T20:58:59.798Z,8.93
2023-05-19T21:01:28.292Z,7.63
2023-05-19T21:03:55.153Z,7.95
2023-05-19T21:06:22.069Z,8.18
2023-05-19T21:08:48.866Z,7.22
2023-05-19T21:11:19.471Z,8.10
2023-05-19T21:13:46.439Z,7.45
2023-05-19T21:16:13.592Z,8.38
2023-05-19T21:18:55.081Z,8.40
2023-05-19T21:21:22.310Z,7.82
2023-05-19T21:23:49.207Z,8.15
2023-05-19T21:26:16.235Z,8.48
2023-05-19T21:28:43.845Z,8.95
2023-05-19T21:31:11.080Z,9.10
2023-05-19T21:33:38.245Z,9.88
2023-05-19T21:36:06.097Z,9.52
2023-05-19T21:38:33.380Z,10.55
2023-05-19T21:41:00.513Z,9.63
2023-05-19T21:43:28.098Z,9.80
2023-05-19T21:46:03.546Z,9.73
2023-05-19T21:48:31.121Z,10.23
2023-05-19T21:50:58.220Z,10.70
2023-05-19T21:53:26.043Z,11.23
2023-05-19T21:55:53.492Z,12.77
2023-05-19T21:58:20.614Z,13.85
2023-05-19T22:00:51.159Z,15.18
2023-05-19T22:03:18.686Z,17.20
2023-05-19T22:05:50.219Z,17.98
2023-05-19T22:08:17.917Z,17.65
2023-05-19T22:10:45.251Z,18.50
2023-05-19T22:13:12.925Z,19.85
2023-05-19T22:15:40.518Z,19.52
2023-05-19T22:18:07.811Z,18.88
2023-05-19T22:20:35.596Z,18.73
2023-05-19T22:23:03.873Z,18.98
2023-05-19T22:25:31.132Z,20.73
2023-05-19T22:27:59.027Z,20.48
2023-05-19T22:30:26.278Z,21.42
2023-05-19T22:32:53.633Z,22.20
2023-05-19T22:35:20.696Z,22.65
2023-05-19T22:37:47.568Z,21.70
2023-05-19T22:40:17.266Z,23.27
2023-05-19T22:42:47.109Z,21.55
2023-05-19T22:45:14.582Z,21.52
2023-05-19T22:47:41.607Z,20.85
2023-05-19T22:50:12.418Z,21.10
2023-05-19T22:52:40.201Z,20.00
2023-05-19T22:55:13.495Z,20.87
2023-05-19T22:57:40.687Z,21.65
2023-05-19T23:00:09.181Z,22.05
2023-05-19T23:02:36.638Z,20.65
2023-05-19T23:05:04.147Z,21.35
2023-05-19T23:07:31.005Z,22.17
2023-05-19T23:09:58.295Z,20.48
2023-05-19T23:12:26.098Z,21.90
2023-05-19T23:14:54.781Z,22.52
2023-05-19T23:17:21.939Z,23.52
2023-05-19T23:19:49.100Z,22.95
2023-05-19T23:22:16.518Z,23.15
2023-05-19T23:24:43.776Z,21.75
2023-05-19T23:27:10.625Z,20.10
2023-05-19T23:29:37.864Z,22.15
2023-05-19T23:32:04.981Z,24.38
2023-05-19T23:34:32.263Z,22.02
2023-05-19T23:36:59.430Z,20.52
2023-05-19T23:42:07.379Z,20.30
2023-05-19T23:44:36.967Z,20.98
2023-05-19T23:47:04.797Z,20.75
2023-05-19T23:49:32.028Z,19.30
2023-05-19T23:51:59.064Z,20.60
2023-05-19T23:54:26.713Z,20.13
2023-05-19T23:56:55.786Z,19.85
2023-05-19T23:59:22.841Z,21.48
